sensor_id;sensor_type;location;lat;lon;timestamp;P1;durP1;ratioP1;P2;durP2;ratioP2
68224;SDS011;57497;43.322;21.932;2023-04-03T00:00:35;21.8;;;12.5;;
68224;SDS011;57497;43.322;21.932;2023-04-03T00:05:34;15.2;;;9.3;;
68224;SDS011;57497;43.322;21.932;2023-04-03T00:10:33;25.2;;;8.7;;
68224;SDS011;57497;43.322;21.932;2023-04-03T00:15:33;21.9;;;10.5;;
68224;SDS011;57497;43.322;21.932;2023-04-03T00:20:33;19.5;;;9.9;;
68224;SDS011;57497;43.322;21.932;2023-04-03T00:25:33;11.4;;;7.8;;
68224;SDS011;57497;43.322;21.932;2023-04-03T00:30:33;19.1;;;8.8;;
68224;SDS011;57497;43.322;21.932;2023-04-03T00:35:33;19.2;;;8.4;;
68224;SDS011;57497;43.322;21.932;2023-04-03T00:40:33;15.1;;;7.7;;
68224;SDS011;57497;43.322;21.932;2023-04-03T00:45:34;10.7;;;6.3;;
68224;SDS011;57497;43.322;21.932;2023-04-03T00:50:35;13.4;;;8;;
68224;SDS011;57497;43.322;21.932;2023-04-03T00:55:33;10.2;;;6.9;;
68224;SDS011;57497;43.322;21.932;2023-04-03T01:00:34;15.1;;;9.6;;
68224;SDS011;57497;43.322;21.932;2023-04-03T01:05:34;14.2;;;8.2;;
68224;SDS011;57497;43.322;21.932;2023-04-03T01:10:33;15.2;;;8.9;;
68224;SDS011;57497;43.322;21.932;2023-04-03T01:15:33;16.9;;;10.3;;
68224;SDS011;57497;43.322;21.932;2023-04-03T01:20:42;19.7;;;8.5;;
68224;SDS011;57497;43.322;21.932;2023-04-03T01:25:34;24.2;;;8.2;;
68224;SDS011;57497;43.322;21.932;2023-04-03T01:30:34;19;;;9.6;;
68224;SDS011;57497;43.322;21.932;2023-04-03T01:35:33;14.1;;;7.8;;
68224;SDS011;57497;43.322;21.932;2023-04-03T01:40:33;24.8;;;11;;
68224;SDS011;57497;43.322;21.932;2023-04-03T01:45:33;15.9;;;8.9;;
68224;SDS011;57497;43.322;21.932;2023-04-03T01:50:33;19.7;;;11.1;;
68224;SDS011;57497;43.322;21.932;2023-04-03T01:55:33;22.3;;;10.2;;
68224;SDS011;57497;43.322;21.932;2023-04-03T02:00:34;16;;;8.5;;
68224;SDS011;57497;43.322;21.932;2023-04-03T02:05:34;17.6;;;8.2;;
68224;SDS011;57497;43.322;21.932;2023-04-03T02:10:33;17;;;10.2;;
68224;SDS011;57497;43.322;21.932;2023-04-03T02:15:33;12.7;;;8.8;;
68224;SDS011;57497;43.322;21.932;2023-04-03T02:20:34;15.5;;;9.2;;
68224;SDS011;57497;43.322;21.932;2023-04-03T02:25:33;17.2;;;9.5;;
68224;SDS011;57497;43.322;21.932;2023-04-03T02:30:33;14.8;;;8.7;;
68224;SDS011;57497;43.322;21.932;2023-04-03T02:35:33;14.5;;;8.4;;
68224;SDS011;57497;43.322;21.932;2023-04-03T02:40:33;20.6;;;7.5;;
68224;SDS011;57497;43.322;21.932;2023-04-03T02:45:33;10.4;;;7.8;;
68224;SDS011;57497;43.322;21.932;2023-04-03T02:50:34;16.7;;;8.3;;
68224;SDS011;57497;43.322;21.932;2023-04-03T02:55:33;12.4;;;7.7;;
68224;SDS011;57497;43.322;21.932;2023-04-03T03:00:34;17.4;;;9.8;;
68224;SDS011;57497;43.322;21.932;2023-04-03T03:05:34;13.3;;;7.5;;
68224;SDS011;57497;43.322;21.932;2023-04-03T03:10:33;14.4;;;8.8;;
68224;SDS011;57497;43.322;21.932;2023-04-03T03:15:33;23.9;;;9;;
68224;SDS011;57497;43.322;21.932;2023-04-03T03:20:33;22.9;;;9.8;;
68224;SDS011;57497;43.322;21.932;2023-04-03T03:25:33;21.4;;;11.4;;
68224;SDS011;57497;43.322;21.932;2023-04-03T03:30:33;37;;;10.3;;
68224;SDS011;57497;43.322;21.932;2023-04-03T03:35:33;12.3;;;7.4;;
68224;SDS011;57497;43.322;21.932;2023-04-03T03:40:33;12.2;;;7.4;;
68224;SDS011;57497;43.322;21.932;2023-04-03T03:45:33;17.9;;;10.9;;
68224;SDS011;57497;43.322;21.932;2023-04-03T03:50:34;10.6;;;7;;
68224;SDS011;57497;43.322;21.932;2023-04-03T03:55:33;10.2;;;7.2;;
68224;SDS011;57497;43.322;21.932;2023-04-03T04:00:34;10.5;;;6.5;;
68224;SDS011;57497;43.322;21.932;2023-04-03T04:05:34;10.8;;;7.1;;
68224;SDS011;57497;43.322;21.932;2023-04-03T04:10:33;14.7;;;6.9;;
68224;SDS011;57497;43.322;21.932;2023-04-03T04:15:33;9.4;;;6.9;;
68224;SDS011;57497;43.322;21.932;2023-04-03T04:20:34;11.8;;;7.8;;
68224;SDS011;57497;43.322;21.932;2023-04-03T04:25:33;13.1;;;8.1;;
68224;SDS011;57497;43.322;21.932;2023-04-03T04:30:33;13.8;;;7.7;;
68224;SDS011;57497;43.322;21.932;2023-04-03T04:35:33;13.2;;;8.1;;
68224;SDS011;57497;43.322;21.932;2023-04-03T04:40:33;13.4;;;7.7;;
68224;SDS011;57497;43.322;21.932;2023-04-03T04:45:33;9.9;;;6.7;;
68224;SDS011;57497;43.322;21.932;2023-04-03T04:50:33;16;;;7.4;;
68224;SDS011;57497;43.322;21.932;2023-04-03T04:55:33;13.7;;;7.5;;
68224;SDS011;57497;43.322;21.932;2023-04-03T05:00:35;18.9;;;9.4;;
68224;SDS011;57497;43.322;21.932;2023-04-03T05:05:34;14.3;;;8.2;;
68224;SDS011;57497;43.322;21.932;2023-04-03T05:10:34;14.6;;;7.5;;
68224;SDS011;57497;43.322;21.932;2023-04-03T05:15:32;15.3;;;8.4;;
68224;SDS011;57497;43.322;21.932;2023-04-03T05:20:33;14.7;;;8.9;;
68224;SDS011;57497;43.322;21.932;2023-04-03T05:25:33;16.8;;;10.9;;
68224;SDS011;57497;43.322;21.932;2023-04-03T05:30:33;9.1;;;6.7;;
68224;SDS011;57497;43.322;21.932;2023-04-03T05:35:35;11.1;;;7.2;;
68224;SDS011;57497;43.322;21.932;2023-04-03T05:40:33;13.7;;;8;;
68224;SDS011;57497;43.322;21.932;2023-04-03T05:45:33;13.9;;;9;;
68224;SDS011;57497;43.322;21.932;2023-04-03T05:50:33;27.5;;;13.4;;
68224;SDS011;57497;43.322;21.932;2023-04-03T05:55:33;19.9;;;12.1;;
68224;SDS011;57497;43.322;21.932;2023-04-03T06:00:34;35.6;;;16.1;;
68224;SDS011;57497;43.322;21.932;2023-04-03T06:05:34;27.5;;;15.4;;
68224;SDS011;57497;43.322;21.932;2023-04-03T06:10:33;33.6;;;16;;
68224;SDS011;57497;43.322;21.932;2023-04-03T06:15:33;21.1;;;15.4;;
68224;SDS011;57497;43.322;21.932;2023-04-03T06:20:33;26.8;;;16.9;;
68224;SDS011;57497;43.322;21.932;2023-04-03T06:25:33;30.5;;;18.5;;
68224;SDS011;57497;43.322;21.932;2023-04-03T06:30:33;21.7;;;12.7;;
68224;SDS011;57497;43.322;21.932;2023-04-03T06:35:33;13.7;;;11.9;;
68224;SDS011;57497;43.322;21.932;2023-04-03T06:40:33;28.1;;;18.8;;
68224;SDS011;57497;43.322;21.932;2023-04-03T06:45:33;23.8;;;17.4;;
68224;SDS011;57497;43.322;21.932;2023-04-03T06:50:33;33.3;;;16.3;;
68224;SDS011;57497;43.322;21.932;2023-04-03T06:55:33;17.6;;;13.2;;
68224;SDS011;57497;43.322;21.932;2023-04-03T07:00:34;18.5;;;12.8;;
68224;SDS011;57497;43.322;21.932;2023-04-03T07:05:34;24.4;;;12.7;;
68224;SDS011;57497;43.322;21.932;2023-04-03T07:10:33;13;;;10.3;;
68224;SDS011;57497;43.322;21.932;2023-04-03T07:15:33;13.2;;;11.4;;
68224;SDS011;57497;43.322;21.932;2023-04-03T07:20:34;15.8;;;12.5;;
68224;SDS011;57497;43.322;21.932;2023-04-03T07:25:33;18.2;;;12.2;;
68224;SDS011;57497;43.322;21.932;2023-04-03T07:30:33;12.5;;;8.7;;
68224;SDS011;57497;43.322;21.932;2023-04-03T07:35:34;12.5;;;10.2;;
68224;SDS011;57497;43.322;21.932;2023-04-03T07:40:33;14.3;;;10.9;;
68224;SDS011;57497;43.322;21.932;2023-04-03T07:45:34;12.7;;;9.4;;
68224;SDS011;57497;43.322;21.932;2023-04-03T07:50:33;20.3;;;13.4;;
68224;SDS011;57497;43.322;21.932;2023-04-03T07:55:33;20.1;;;13.9;;
68224;SDS011;57497;43.322;21.932;2023-04-03T08:00:34;20.7;;;14.9;;
68224;SDS011;57497;43.322;21.932;2023-04-03T08:05:36;25.1;;;18.7;;
68224;SDS011;57497;43.322;21.932;2023-04-03T08:10:34;25.2;;;16.1;;
68224;SDS011;57497;43.322;21.932;2023-04-03T08:15:33;26;;;15.1;;
68224;SDS011;57497;43.322;21.932;2023-04-03T08:20:33;49.7;;;18.5;;
68224;SDS011;57497;43.322;21.932;2023-04-03T08:25:33;28.6;;;17.5;;
68224;SDS011;57497;43.322;21.932;2023-04-03T08:30:34;31.7;;;21.1;;
68224;SDS011;57497;43.322;21.932;2023-04-03T08:35:33;29.7;;;20.3;;
68224;SDS011;57497;43.322;21.932;2023-04-03T08:40:33;28.9;;;21;;
68224;SDS011;57497;43.322;21.932;2023-04-03T08:45:37;24.8;;;19.4;;
68224;SDS011;57497;43.322;21.932;2023-04-03T08:50:33;37.2;;;19.4;;
68224;SDS011;57497;43.322;21.932;2023-04-03T08:55:34;26;;;17;;
68224;SDS011;57497;43.322;21.932;2023-04-03T09:00:37;53.8;;;21.3;;
68224;SDS011;57497;43.322;21.932;2023-04-03T09:05:38;24;;;18.5;;
68224;SDS011;57497;43.322;21.932;2023-04-03T09:10:34;29.9;;;19.9;;
68224;SDS011;57497;43.322;21.932;2023-04-03T09:15:33;31.8;;;21;;
68224;SDS011;57497;43.322;21.932;2023-04-03T09:20:38;37.7;;;21.4;;
68224;SDS011;57497;43.322;21.932;2023-04-03T09:25:33;31.3;;;21.6;;
68224;SDS011;57497;43.322;21.932;2023-04-03T09:30:33;32.9;;;20.6;;
68224;SDS011;57497;43.322;21.932;2023-04-03T09:35:33;26.2;;;19.9;;
68224;SDS011;57497;43.322;21.932;2023-04-03T09:40:34;34.4;;;22;;
68224;SDS011;57497;43.322;21.932;2023-04-03T09:45:34;28.8;;;16.4;;
68224;SDS011;57497;43.322;21.932;2023-04-03T09:50:34;28.1;;;18.4;;
68224;SDS011;57497;43.322;21.932;2023-04-03T09:55:41;27.4;;;18.9;;
68224;SDS011;57497;43.322;21.932;2023-04-03T10:00:35;37.3;;;19.7;;
68224;SDS011;57497;43.322;21.932;2023-04-03T10:05:35;27.6;;;14.5;;
68224;SDS011;57497;43.322;21.932;2023-04-03T10:10:34;24.3;;;15.6;;
68224;SDS011;57497;43.322;21.932;2023-04-03T10:15:35;29.1;;;16.2;;
68224;SDS011;57497;43.322;21.932;2023-04-03T10:20:33;25.9;;;17.7;;
68224;SDS011;57497;43.322;21.932;2023-04-03T10:25:35;30.8;;;19.4;;
68224;SDS011;57497;43.322;21.932;2023-04-03T10:30:34;28.9;;;18.5;;
68224;SDS011;57497;43.322;21.932;2023-04-03T10:35:37;33.9;;;20.2;;
68224;SDS011;57497;43.322;21.932;2023-04-03T10:40:34;40;;;23.8;;
68224;SDS011;57497;43.322;21.932;2023-04-03T10:45:37;40.1;;;23.3;;
68224;SDS011;57497;43.322;21.932;2023-04-03T10:50:36;42;;;24.6;;
68224;SDS011;57497;43.322;21.932;2023-04-03T10:55:35;42.2;;;23.4;;
68224;SDS011;57497;43.322;21.932;2023-04-03T11:00:36;23.3;;;16.8;;
68224;SDS011;57497;43.322;21.932;2023-04-03T11:05:34;37.2;;;22.3;;
68224;SDS011;57497;43.322;21.932;2023-04-03T11:10:35;34.3;;;17.6;;
68224;SDS011;57497;43.322;21.932;2023-04-03T11:15:33;40.6;;;24;;
68224;SDS011;57497;43.322;21.932;2023-04-03T11:20:33;34.5;;;20.5;;
68224;SDS011;57497;43.322;21.932;2023-04-03T11:25:33;37.4;;;23.5;;
68224;SDS011;57497;43.322;21.932;2023-04-03T11:30:38;25;;;16.2;;
68224;SDS011;57497;43.322;21.932;2023-04-03T11:35:33;39.7;;;23.5;;
68224;SDS011;57497;43.322;21.932;2023-04-03T11:40:34;33.3;;;20.6;;
68224;SDS011;57497;43.322;21.932;2023-04-03T11:45:35;31.4;;;18.1;;
68224;SDS011;57497;43.322;21.932;2023-04-03T11:50:41;30.4;;;19.8;;
68224;SDS011;57497;43.322;21.932;2023-04-03T11:56:38;24;;;15.4;;
68224;SDS011;57497;43.322;21.932;2023-04-03T12:00:52;28.6;;;18.3;;
68224;SDS011;57497;43.322;21.932;2023-04-03T12:05:35;37.7;;;20.2;;
68224;SDS011;57497;43.322;21.932;2023-04-03T12:10:33;36.8;;;20.3;;
68224;SDS011;57497;43.322;21.932;2023-04-03T12:15:52;26.2;;;17.6;;
68224;SDS011;57497;43.322;21.932;2023-04-03T12:20:56;39.6;;;21.6;;
68224;SDS011;57497;43.322;21.932;2023-04-03T12:25:41;32.7;;;21.9;;
68224;SDS011;57497;43.322;21.932;2023-04-03T12:30:34;29.3;;;17.7;;
68224;SDS011;57497;43.322;21.932;2023-04-03T12:35:34;31.1;;;15.2;;
68224;SDS011;57497;43.322;21.932;2023-04-03T12:40:34;39;;;24.5;;
68224;SDS011;57497;43.322;21.932;2023-04-03T12:45:38;26.8;;;17.9;;
68224;SDS011;57497;43.322;21.932;2023-04-03T12:50:33;22.9;;;15.6;;
68224;SDS011;57497;43.322;21.932;2023-04-03T12:55:33;33;;;23.9;;
68224;SDS011;57497;43.322;21.932;2023-04-03T13:00:35;33.6;;;22.2;;
68224;SDS011;57497;43.322;21.932;2023-04-03T13:05:33;28.3;;;14.8;;
68224;SDS011;57497;43.322;21.932;2023-04-03T13:10:42;39;;;23.2;;
68224;SDS011;57497;43.322;21.932;2023-04-03T13:15:39;34.2;;;22.5;;
68224;SDS011;57497;43.322;21.932;2023-04-03T13:20:33;27.3;;;18.7;;
68224;SDS011;57497;43.322;21.932;2023-04-03T13:25:34;36.2;;;24.1;;
68224;SDS011;57497;43.322;21.932;2023-04-03T13:30:33;27;;;19.6;;
68224;SDS011;57497;43.322;21.932;2023-04-03T13:35:35;30;;;20.5;;
68224;SDS011;57497;43.322;21.932;2023-04-03T13:40:33;41.4;;;26.9;;
68224;SDS011;57497;43.322;21.932;2023-04-03T13:45:33;21.2;;;16.8;;
68224;SDS011;57497;43.322;21.932;2023-04-03T13:50:33;30.7;;;20.8;;
68224;SDS011;57497;43.322;21.932;2023-04-03T13:55:34;30.1;;;21.3;;
68224;SDS011;57497;43.322;21.932;2023-04-03T14:00:36;32.7;;;25.1;;
68224;SDS011;57497;43.322;21.932;2023-04-03T14:05:34;30.5;;;22.1;;
68224;SDS011;57497;43.322;21.932;2023-04-03T14:10:33;28.5;;;19.4;;
68224;SDS011;57497;43.322;21.932;2023-04-03T14:15:33;42.2;;;26.9;;
68224;SDS011;57497;43.322;21.932;2023-04-03T14:20:33;36.1;;;20.2;;
68224;SDS011;57497;43.322;21.932;2023-04-03T14:25:33;45.1;;;25.6;;
68224;SDS011;57497;43.322;21.932;2023-04-03T14:30:33;31.6;;;21.6;;
68224;SDS011;57497;43.322;21.932;2023-04-03T14:35:33;24.4;;;16;;
68224;SDS011;57497;43.322;21.932;2023-04-03T14:40:33;37;;;22.7;;
68224;SDS011;57497;43.322;21.932;2023-04-03T14:45:33;48.1;;;21.3;;
68224;SDS011;57497;43.322;21.932;2023-04-03T14:50:33;23.9;;;17.4;;
68224;SDS011;57497;43.322;21.932;2023-04-03T14:55:33;32.3;;;20;;
68224;SDS011;57497;43.322;21.932;2023-04-03T15:00:35;30;;;21;;
68224;SDS011;57497;43.322;21.932;2023-04-03T15:05:34;45.1;;;23.1;;
68224;SDS011;57497;43.322;21.932;2023-04-03T15:10:33;38.1;;;21.4;;
68224;SDS011;57497;43.322;21.932;2023-04-03T15:15:33;37.6;;;21.1;;
68224;SDS011;57497;43.322;21.932;2023-04-03T15:20:33;29.8;;;19.2;;
68224;SDS011;57497;43.322;21.932;2023-04-03T15:25:33;24.2;;;18.5;;
68224;SDS011;57497;43.322;21.932;2023-04-03T15:30:34;33;;;19.2;;
68224;SDS011;57497;43.322;21.932;2023-04-03T15:35:33;31.1;;;20.8;;
68224;SDS011;57497;43.322;21.932;2023-04-03T15:40:33;21;;;13.3;;
68224;SDS011;57497;43.322;21.932;2023-04-03T15:45:34;22.7;;;16.5;;
68224;SDS011;57497;43.322;21.932;2023-04-03T15:50:33;25.2;;;17.1;;
68224;SDS011;57497;43.322;21.932;2023-04-03T15:55:35;27.8;;;18.8;;
68224;SDS011;57497;43.322;21.932;2023-04-03T16:00:34;22.6;;;13.3;;
68224;SDS011;57497;43.322;21.932;2023-04-03T16:05:34;27.2;;;20.3;;
68224;SDS011;57497;43.322;21.932;2023-04-03T16:10:34;16.1;;;13.2;;
68224;SDS011;57497;43.322;21.932;2023-04-03T16:15:34;26.6;;;16.8;;
68224;SDS011;57497;43.322;21.932;2023-04-03T16:20:33;28.6;;;19;;
68224;SDS011;57497;43.322;21.932;2023-04-03T16:25:33;29.7;;;18;;
68224;SDS011;57497;43.322;21.932;2023-04-03T16:30:33;24.8;;;18.3;;
68224;SDS011;57497;43.322;21.932;2023-04-03T16:35:33;23.3;;;17.6;;
68224;SDS011;57497;43.322;21.932;2023-04-03T16:40:33;34.1;;;20.4;;
68224;SDS011;57497;43.322;21.932;2023-04-03T16:45:33;29.6;;;17;;
68224;SDS011;57497;43.322;21.932;2023-04-03T16:50:33;36.1;;;21.7;;
68224;SDS011;57497;43.322;21.932;2023-04-03T16:55:33;27.5;;;17.8;;
68224;SDS011;57497;43.322;21.932;2023-04-03T17:00:34;24.3;;;18.3;;
68224;SDS011;57497;43.322;21.932;2023-04-03T17:05:34;26.6;;;17.1;;
68224;SDS011;57497;43.322;21.932;2023-04-03T17:10:33;22.4;;;18.8;;
68224;SDS011;57497;43.322;21.932;2023-04-03T17:15:33;17.3;;;13.3;;
68224;SDS011;57497;43.322;21.932;2023-04-03T17:20:34;25.1;;;19;;
68224;SDS011;57497;43.322;21.932;2023-04-03T17:25:33;26.3;;;18.5;;
68224;SDS011;57497;43.322;21.932;2023-04-03T17:30:33;25;;;18.2;;
68224;SDS011;57497;43.322;21.932;2023-04-03T17:35:33;27.5;;;20.1;;
68224;SDS011;57497;43.322;21.932;2023-04-03T17:40:33;26.6;;;18.3;;
68224;SDS011;57497;43.322;21.932;2023-04-03T17:45:33;21.7;;;14.6;;
68224;SDS011;57497;43.322;21.932;2023-04-03T17:50:33;31.5;;;18.8;;
68224;SDS011;57497;43.322;21.932;2023-04-03T17:55:33;22.3;;;15;;
68224;SDS011;57497;43.322;21.932;2023-04-03T18:00:35;25.9;;;14.8;;
68224;SDS011;57497;43.322;21.932;2023-04-03T18:05:34;29.3;;;18.4;;
68224;SDS011;57497;43.322;21.932;2023-04-03T18:10:34;22.5;;;15.5;;
68224;SDS011;57497;43.322;21.932;2023-04-03T18:15:33;28.1;;;17.8;;
68224;SDS011;57497;43.322;21.932;2023-04-03T18:20:33;23.6;;;15.8;;
68224;SDS011;57497;43.322;21.932;2023-04-03T18:25:33;22.9;;;16.2;;
68224;SDS011;57497;43.322;21.932;2023-04-03T18:30:33;11.6;;;10.4;;
68224;SDS011;57497;43.322;21.932;2023-04-03T18:35:33;16.8;;;13;;
68224;SDS011;57497;43.322;21.932;2023-04-03T18:40:33;16.7;;;12.5;;
68224;SDS011;57497;43.322;21.932;2023-04-03T18:45:33;18.7;;;11.6;;
68224;SDS011;57497;43.322;21.932;2023-04-03T18:50:33;20.2;;;14.2;;
68224;SDS011;57497;43.322;21.932;2023-04-03T18:55:33;18.1;;;14;;
68224;SDS011;57497;43.322;21.932;2023-04-03T19:00:34;15.7;;;11.7;;
68224;SDS011;57497;43.322;21.932;2023-04-03T19:05:35;23.4;;;15.6;;
68224;SDS011;57497;43.322;21.932;2023-04-03T19:10:33;18.7;;;12.6;;
68224;SDS011;57497;43.322;21.932;2023-04-03T19:15:33;22.9;;;13.6;;
68224;SDS011;57497;43.322;21.932;2023-04-03T19:20:33;16.2;;;14.3;;
68224;SDS011;57497;43.322;21.932;2023-04-03T19:25:34;17.9;;;9.4;;
68224;SDS011;57497;43.322;21.932;2023-04-03T19:30:33;13.6;;;8.3;;
68224;SDS011;57497;43.322;21.932;2023-04-03T19:35:33;13.5;;;9.1;;
68224;SDS011;57497;43.322;21.932;2023-04-03T19:40:33;12.1;;;8;;
68224;SDS011;57497;43.322;21.932;2023-04-03T19:45:33;15.7;;;9.4;;
68224;SDS011;57497;43.322;21.932;2023-04-03T19:50:33;11.3;;;9;;
68224;SDS011;57497;43.322;21.932;2023-04-03T19:55:33;12.3;;;7.2;;
68224;SDS011;57497;43.322;21.932;2023-04-03T20:00:35;11.6;;;7.7;;
68224;SDS011;57497;43.322;21.932;2023-04-03T20:05:34;14.6;;;7.5;;
68224;SDS011;57497;43.322;21.932;2023-04-03T20:10:33;11.7;;;6.9;;
68224;SDS011;57497;43.322;21.932;2023-04-03T20:15:33;13.9;;;7;;
68224;SDS011;57497;43.322;21.932;2023-04-03T20:20:33;11;;;7.9;;
68224;SDS011;57497;43.322;21.932;2023-04-03T20:25:33;8.8;;;5.4;;
68224;SDS011;57497;43.322;21.932;2023-04-03T20:30:33;10.8;;;7.2;;
68224;SDS011;57497;43.322;21.932;2023-04-03T20:35:34;7.2;;;5.7;;
68224;SDS011;57497;43.322;21.932;2023-04-03T20:40:33;9.6;;;4.8;;
68224;SDS011;57497;43.322;21.932;2023-04-03T20:45:33;8.9;;;6.1;;
68224;SDS011;57497;43.322;21.932;2023-04-03T20:50:33;10.2;;;5.4;;
68224;SDS011;57497;43.322;21.932;2023-04-03T20:55:33;9.2;;;5;;
68224;SDS011;57497;43.322;21.932;2023-04-03T21:00:35;5.8;;;4;;
68224;SDS011;57497;43.322;21.932;2023-04-03T21:05:34;14.7;;;6;;
68224;SDS011;57497;43.322;21.932;2023-04-03T21:20:33;7.4;;;4.2;;
68224;SDS011;57497;43.322;21.932;2023-04-03T21:25:34;6.8;;;6.1;;
68224;SDS011;57497;43.322;21.932;2023-04-03T21:30:34;5.6;;;3.7;;
68224;SDS011;57497;43.322;21.932;2023-04-03T21:35:33;5.8;;;4.2;;
68224;SDS011;57497;43.322;21.932;2023-04-03T21:40:33;7.2;;;4.3;;
68224;SDS011;57497;43.322;21.932;2023-04-03T21:45:33;4.6;;;3.5;;
68224;SDS011;57497;43.322;21.932;2023-04-03T21:50:33;4.8;;;3.7;;
68224;SDS011;57497;43.322;21.932;2023-04-03T21:55:33;7.5;;;4.7;;
68224;SDS011;57497;43.322;21.932;2023-04-03T22:00:34;7.2;;;4.3;;
68224;SDS011;57497;43.322;21.932;2023-04-03T22:05:34;5.5;;;4.1;;
68224;SDS011;57497;43.322;21.932;2023-04-03T22:10:33;7.9;;;4.6;;
68224;SDS011;57497;43.322;21.932;2023-04-03T22:15:34;7.2;;;4.1;;
68224;SDS011;57497;43.322;21.932;2023-04-03T22:20:33;5;;;2.9;;
68224;SDS011;57497;43.322;21.932;2023-04-03T22:25:33;5.5;;;2.9;;
68224;SDS011;57497;43.322;21.932;2023-04-03T22:30:34;9.8;;;4.2;;
68224;SDS011;57497;43.322;21.932;2023-04-03T22:35:33;7.9;;;3.4;;
68224;SDS011;57497;43.322;21.932;2023-04-03T22:40:33;6.6;;;3.9;;
68224;SDS011;57497;43.322;21.932;2023-04-03T22:45:33;6;;;3.4;;
68224;SDS011;57497;43.322;21.932;2023-04-03T22:50:33;4.8;;;3.9;;
68224;SDS011;57497;43.322;21.932;2023-04-03T22:55:33;5.2;;;3.1;;
68224;SDS011;57497;43.322;21.932;2023-04-03T23:00:34;3.4;;;2.7;;
68224;SDS011;57497;43.322;21.932;2023-04-03T23:05:35;7.5;;;3.8;;
68224;SDS011;57497;43.322;21.932;2023-04-03T23:10:34;4.2;;;3.4;;
68224;SDS011;57497;43.322;21.932;2023-04-03T23:15:33;3;;;2.4;;
68224;SDS011;57497;43.322;21.932;2023-04-03T23:20:33;3.6;;;2.7;;
68224;SDS011;57497;43.322;21.932;2023-04-03T23:25:33;2.5;;;2.2;;
68224;SDS011;57497;43.322;21.932;2023-04-03T23:30:33;4.3;;;2.1;;
68224;SDS011;57497;43.322;21.932;2023-04-03T23:35:33;3.5;;;3;;
68224;SDS011;57497;43.322;21.932;2023-04-03T23:40:33;3.4;;;1.7;;
68224;SDS011;57497;43.322;21.932;2023-04-03T23:45:33;3.2;;;2.6;;
68224;SDS011;57497;43.322;21.932;2023-04-03T23:50:33;2.1;;;1.6;;
68224;SDS011;57497;43.322;21.932;2023-04-03T23:55:33;2.2;;;1.6;;
